Time;durP1;ratioP1;P1;durP2;ratioP2;P2;SDS_P1;SDS_P2;PMS_P1;PMS_P2;Temp;Humidity;BMP_temperature;BMP_pressure;BME280_temperature;BME280_humidity;BME280_pressure;Samples;Min_cycle;Max_cycle;Signal;HPM_P1;HPM_P2
2023/01/21 00:01:10;;;;;;;37.25;21.05;;;;;;;-1.01;100.00;102793.34;4957800;28;20057;-78
2023/01/21 00:03:38;;;;;;;32.03;19.17;;;;;;;-1.03;100.00;102799.19;4919601;28;20050;-78
2023/01/21 00:06:06;;;;;;;34.70;19.85;;;;;;;-1.07;100.00;102800.59;4951851;28;20066;-78
2023/01/21 00:08:35;;;;;;;36.42;20.27;;;;;;;-1.10;100.00;102807.22;4956937;28;20041;-78
2023/01/21 00:11:13;;;;;;;32.17;19.25;;;;;;;-1.13;100.00;102810.47;4965009;28;20054;-78
2023/01/21 00:13:42;;;;;;;33.47;18.42;;;;;;;-1.15;100.00;102816.28;4954104;28;20062;-78
2023/01/21 00:16:10;;;;;;;35.17;20.17;;;;;;;-1.17;100.00;102821.34;4957989;28;20043;-78
2023/01/21 00:18:37;;;;;;;35.53;20.35;;;;;;;-1.20;100.00;102815.91;4925237;28;20058;-78
2023/01/21 00:21:05;;;;;;;38.15;21.13;;;;;;;-1.23;100.00;102816.56;4950139;28;20047;-77
2023/01/21 00:23:32;;;;;;;34.15;19.75;;;;;;;-1.24;100.00;102814.75;4961107;28;20051;-77
2023/01/21 00:26:02;;;;;;;36.38;20.75;;;;;;;-1.26;100.00;102828.34;4951477;28;20402;-77
2023/01/21 00:28:31;;;;;;;31.35;18.90;;;;;;;-1.29;100.00;102828.97;4953989;28;20034;-77
2023/01/21 00:31:00;;;;;;;34.30;20.02;;;;;;;-1.32;100.00;102831.31;4955845;28;20062;-77
2023/01/21 00:33:28;;;;;;;38.97;21.83;;;;;;;-1.34;100.00;102838.06;4904349;28;20057;-79
2023/01/21 00:36:00;;;;;;;32.83;19.75;;;;;;;-1.38;100.00;102836.91;4925474;28;20452;-78
2023/01/21 00:38:28;;;;;;;30.80;19.58;;;;;;;-1.40;100.00;102842.69;4943470;28;20043;-77
2023/01/21 00:41:25;;;;;;;35.50;18.48;;;;;;;-1.43;100.00;102845.03;4943807;29;20055;-77
2023/01/21 00:43:52;;;;;;;36.38;20.30;;;;;;;-1.45;100.00;102851.78;4951860;28;20046;-79
2023/01/21 00:46:19;;;;;;;32.45;19.50;;;;;;;-1.49;100.00;102850.59;4943653;29;20059;-77
2023/01/21 00:48:48;;;;;;;35.35;21.20;;;;;;;-1.50;100.00;102856.53;4966539;28;20062;-77
2023/01/21 00:51:15;;;;;;;37.50;20.90;;;;;;;-1.51;100.00;102857.34;4931812;28;20047;-77
2023/01/21 00:53:43;;;;;;;40.38;21.83;;;;;;;-1.52;100.00;102855.50;4939954;28;20051;-77
2023/01/21 00:56:12;;;;;;;40.10;21.10;;;;;;;-1.52;100.00;102852.03;4952135;28;20051;-79
2023/01/21 00:58:42;;;;;;;39.67;21.50;;;;;;;-1.53;100.00;102852.78;4953684;28;20039;-79
2023/01/21 01:01:13;;;;;;;36.30;22.43;;;;;;;-1.57;100.00;102849.97;4950987;29;20070;-79
2023/01/21 01:03:40;;;;;;;43.65;22.88;;;;;;;-1.59;100.00;102848.94;4943460;28;20398;-79
2023/01/21 01:06:18;;;;;;;37.20;21.10;;;;;;;-1.62;100.00;102853.84;4919972;28;20488;-79
2023/01/21 01:08:48;;;;;;;36.30;20.77;;;;;;;-1.63;100.00;102864.03;4948489;29;20493;-78
2023/01/21 01:11:16;;;;;;;36.17;21.25;;;;;;;-1.65;100.00;102863.91;4934126;28;20066;-78
2023/01/21 01:13:44;;;;;;;39.83;21.73;;;;;;;-1.66;100.00;102867.28;4934886;29;20047;-77
2023/01/21 01:16:13;;;;;;;38.75;21.05;;;;;;;-1.68;100.00;102874.00;4930801;28;20412;-77
2023/01/21 01:18:42;;;;;;;40.33;22.37;;;;;;;-1.70;100.00;102870.38;4970513;28;20050;-77
2023/01/21 01:21:20;;;;;;;36.88;21.48;;;;;;;-1.73;100.00;102867.53;4925658;28;20412;-77
2023/01/21 01:23:50;;;;;;;36.30;20.90;;;;;;;-1.74;100.00;102881.22;4972622;28;20047;-78
2023/01/21 01:26:20;;;;;;;37.42;21.38;;;;;;;-1.75;100.00;102887.16;4936339;28;20050;-77
2023/01/21 01:28:47;;;;;;;38.88;20.17;;;;;;;-1.77;100.00;102892.19;4955001;28;20039;-77
2023/01/21 01:31:16;;;;;;;39.25;21.02;;;;;;;-1.77;100.00;102889.63;4952060;28;20046;-77
2023/01/21 01:33:45;;;;;;;36.75;20.40;;;;;;;-1.78;100.00;102892.06;4950893;29;20054;-77
2023/01/21 01:36:16;;;;;;;38.10;20.67;;;;;;;-1.80;100.00;102896.19;4908925;28;20058;-77
2023/01/21 01:38:44;;;;;;;39.40;21.20;;;;;;;-1.80;100.00;102903.94;4958948;28;20122;-78
2023/01/21 01:41:17;;;;;;;35.15;20.63;;;;;;;-1.84;100.00;102892.44;4937778;28;20039;-77
2023/01/21 01:44:03;;;;;;;36.38;20.20;;;;;;;-1.85;100.00;102895.81;4953497;28;20050;-78
2023/01/21 01:46:33;;;;;;;40.53;20.50;;;;;;;-1.87;100.00;102899.94;4965333;28;20050;-78
2023/01/21 01:49:14;;;;;;;33.45;20.70;;;;;;;-1.87;100.00;102899.94;4936498;28;20051;-78
2023/01/21 01:51:50;;;;;;;39.63;21.45;;;;;;;-1.87;100.00;102902.53;4930078;28;20051;-78
2023/01/21 01:54:26;;;;;;;40.50;20.80;;;;;;;-1.88;100.00;102897.22;4950721;28;20488;-78
2023/01/21 01:56:57;;;;;;;35.10;20.25;;;;;;;-1.90;100.00;102894.50;4972119;28;20051;-78
2023/01/21 01:59:25;;;;;;;34.88;20.35;;;;;;;-1.90;100.00;102904.84;4951920;28;20047;-77
2023/01/21 02:01:53;;;;;;;42.25;21.42;;;;;;;-1.91;100.00;102899.53;4955148;28;20057;-77
2023/01/21 02:04:25;;;;;;;36.00;19.70;;;;;;;-1.94;100.00;102900.19;4951869;28;20438;-78
2023/01/21 02:06:54;;;;;;;35.40;19.88;;;;;;;-1.96;100.00;102899.16;4937787;28;20047;-77
2023/01/21 02:09:28;;;;;;;39.08;19.90;;;;;;;-1.96;100.00;102909.50;4959578;28;20074;-78
2023/01/21 02:12:01;;;;;;;39.55;19.67;;;;;;;-2.00;100.00;102905.72;4961448;28;20054;-78
2023/01/21 02:14:29;;;;;;;40.13;19.95;;;;;;;-2.03;100.00;102913.19;4942040;28;20390;-77
2023/01/21 02:17:09;;;;;;;33.10;19.83;;;;;;;-2.05;100.00;102919.91;4953368;28;20043;-77
2023/01/21 02:19:45;;;;;;;34.90;19.35;;;;;;;-2.04;100.00;102925.97;4955969;28;20527;-77
2023/01/21 02:22:25;;;;;;;42.67;20.80;;;;;;;-2.06;100.00;102932.69;4928848;28;20039;-77
2023/01/21 02:25:15;;;;;;;36.45;19.33;;;;;;;-2.08;100.00;102926.47;4956639;28;20070;-77
2023/01/21 02:27:58;;;;;;;33.90;19.77;;;;;;;-2.12;100.00;102932.16;4946858;28;20417;-77
2023/01/21 02:30:51;;;;;;;32.40;18.83;;;;;;;-2.14;100.00;102938.88;4970462;28;20039;-77
2023/01/21 02:33:50;;;;;;;31.23;17.88;;;;;;;-2.16;100.00;102937.03;4953254;28;20069;-79
2023/01/21 02:36:29;;;;;;;37.33;19.77;;;;;;;-2.16;100.00;102947.38;4966833;28;20066;-79
2023/01/21 02:39:18;;;;;;;36.08;19.13;;;;;;;-2.17;100.00;102949.84;4929396;29;20516;-78
2023/01/21 02:41:54;;;;;;;37.63;19.77;;;;;;;-2.19;100.00;102939.38;4945879;28;20046;-77
2023/01/21 02:44:34;;;;;;;36.45;19.63;;;;;;;-2.19;100.00;102938.47;4950101;28;20070;-78
2023/01/21 02:47:15;;;;;;;33.47;19.25;;;;;;;-2.19;100.00;102951.41;4954128;28;20438;-78
2023/01/21 02:50:02;;;;;;;;;;;;;;;-2.22;100.00;102943.38;4941748;28;20055;-78
2023/01/21 02:52:30;;;;;;;41.72;20.70;;;;;;;-2.24;100.00;102952.66;4934618;28;19922;-78
2023/01/21 02:54:59;;;;;;;41.72;20.15;;;;;;;-2.25;100.00;102951.75;4922002;28;20062;-78
2023/01/21 02:57:52;;;;;;;33.60;19.15;;;;;;;-2.28;100.00;102945.41;4947892;28;20081;-78
2023/01/21 03:00:29;;;;;;;33.55;19.33;;;;;;;-2.29;100.00;102952.22;4953015;28;20061;-78
2023/01/21 03:03:14;;;;;;;38.03;19.98;;;;;;;-2.31;100.00;102947.72;4945419;28;20054;-78
2023/01/21 03:05:52;;;;;;;36.45;19.05;;;;;;;-2.36;100.00;102955.97;4942894;28;20054;-78
2023/01/21 03:08:22;;;;;;;37.50;20.15;;;;;;;-2.36;100.00;102961.13;4949347;28;20068;-78
2023/01/21 03:10:58;;;;;;;39.40;19.38;;;;;;;-2.36;100.00;102963.72;4924491;28;20050;-78
2023/01/21 03:19:42;;;;;;;39.38;20.27;;;;;;;-2.31;100.00;102971.84;4957221;28;20524;-78
2023/01/21 03:22:13;;;;;;;40.60;20.42;;;;;;;-2.28;100.00;102971.25;4939681;28;20507;-78
2023/01/21 03:24:47;;;;;;;43.75;20.92;;;;;;;-2.26;100.00;102978.34;4918146;28;20054;-77
2023/01/21 03:27:18;;;;;;;39.10;20.33;;;;;;;-2.20;100.00;102980.56;4953425;28;20058;-77
2023/01/21 03:29:51;;;;;;;46.58;22.27;;;;;;;-2.14;100.00;102983.69;4951452;29;20051;-78
2023/01/21 03:32:20;;;;;;;39.30;20.60;;;;;;;-2.10;100.00;102978.00;4965411;28;20051;-77
2023/01/21 03:34:53;;;;;;;39.28;20.45;;;;;;;-2.05;100.00;102984.50;4972362;28;20043;-78
2023/01/21 03:37:51;;;;;;;46.28;20.45;;;;;;;-2.04;100.00;102987.97;4948227;28;20042;-78
2023/01/21 03:40:35;;;;;;;48.17;21.88;;;;;;;-2.05;100.00;102993.94;4902668;28;20065;-77
2023/01/21 03:43:03;;;;;;;40.92;21.02;;;;;;;-2.07;100.00;102987.72;4964894;28;20051;-77
2023/01/21 03:45:48;;;;;;;36.33;20.23;;;;;;;-2.07;100.00;102993.81;4942454;29;20539;-78
2023/01/21 03:48:25;;;;;;;39.33;19.45;;;;;;;-2.07;100.00;102992.91;4963553;28;20047;-78
2023/01/21 03:50:58;;;;;;;39.30;21.10;;;;;;;-2.09;100.00;102997.03;4956858;28;20053;-77
2023/01/21 03:53:26;;;;;;;42.63;20.77;;;;;;;-2.13;100.00;103003.59;4954861;28;20043;-78
2023/01/21 03:55:53;;;;;;;41.78;21.08;;;;;;;-2.16;100.00;103009.38;4917092;28;20051;-78
2023/01/21 03:58:21;;;;;;;43.90;22.63;;;;;;;-2.13;100.00;103019.09;4953124;28;20043;-77
2023/01/21 04:00:48;;;;;;;38.80;20.73;;;;;;;-2.11;100.00;103016.66;4970229;28;20047;-78
2023/01/21 04:03:15;;;;;;;43.40;21.83;;;;;;;-2.10;100.00;103008.13;4972760;28;20121;-78
2023/01/21 04:05:43;;;;;;;42.33;20.45;;;;;;;-2.06;100.00;103012.78;4935253;29;20598;-77
2023/01/21 04:08:10;;;;;;;40.05;21.60;;;;;;;-2.01;100.00;103012.41;4941163;28;20047;-78
2023/01/21 04:10:37;;;;;;;40.55;21.80;;;;;;;-1.94;100.00;103013.88;4925335;28;20405;-78
2023/01/21 04:13:06;;;;;;;41.28;21.88;;;;;;;-1.89;100.00;103010.03;4950205;28;20042;-78
2023/01/21 04:15:33;;;;;;;41.80;21.50;;;;;;;-1.85;100.00;103016.34;4952634;28;20043;-78
2023/01/21 04:18:01;;;;;;;36.45;19.92;;;;;;;-1.82;100.00;103019.22;4959225;28;20043;-79
2023/01/21 04:20:28;;;;;;;39.45;20.50;;;;;;;-1.76;100.00;103019.75;4938356;28;20747;-78
2023/01/21 04:22:55;;;;;;;46.17;20.23;;;;;;;-1.72;100.00;103019.28;4935190;29;20066;-78
2023/01/21 04:25:22;;;;;;;43.92;21.48;;;;;;;-1.67;100.00;103022.25;4932448;28;20051;-78
2023/01/21 04:27:50;;;;;;;43.58;21.70;;;;;;;-1.67;100.00;103015.41;4923073;29;20047;-78
2023/01/21 04:30:17;;;;;;;50.13;23.17;;;;;;;-1.67;100.00;103020.56;4958132;28;20051;-78
2023/01/21 04:32:45;;;;;;;50.03;23.60;;;;;;;-1.67;100.00;103030.91;4949629;28;20062;-77
2023/01/21 04:35:12;;;;;;;41.28;21.20;;;;;;;-1.67;100.00;103023.16;4957454;28;20436;-78
2023/01/21 04:37:40;;;;;;;40.95;21.15;;;;;;;-1.64;100.00;103026.03;4953431;28;20073;-77
2023/01/21 04:40:08;;;;;;;45.15;22.55;;;;;;;-1.62;100.00;103023.56;4961391;28;20042;-78
2023/01/21 04:42:36;;;;;;;44.72;21.98;;;;;;;-1.61;100.00;103035.72;4922835;28;20520;-78
2023/01/21 04:45:03;;;;;;;41.95;20.92;;;;;;;-1.62;100.00;103034.81;4949154;28;20047;-78
2023/01/21 04:47:31;;;;;;;48.15;22.33;;;;;;;-1.62;100.00;103037.41;4951121;29;20055;-78
2023/01/21 04:50:00;;;;;;;41.63;21.95;;;;;;;-1.63;100.00;103037.25;4932244;28;20046;-78
2023/01/21 04:52:29;;;;;;;40.80;21.83;;;;;;;-1.63;100.00;103035.56;4943601;28;20054;-78
2023/01/21 04:54:56;;;;;;;42.08;21.10;;;;;;;-1.64;100.00;103038.94;4961075;28;20062;-78
2023/01/21 04:57:23;;;;;;;47.60;24.02;;;;;;;-1.66;100.00;103037.91;4942501;28;20054;-78
2023/01/21 04:59:52;;;;;;;41.83;20.63;;;;;;;-1.69;100.00;103049.66;4949006;28;20043;-77
2023/01/21 05:02:19;;;;;;;38.97;21.30;;;;;;;-1.73;100.00;103042.41;4939531;28;20072;-77
2023/01/21 05:04:47;;;;;;;42.03;21.52;;;;;;;-1.77;100.00;103044.72;4963380;28;20042;-78
2023/01/21 05:07:14;;;;;;;38.20;20.67;;;;;;;-1.81;100.00;103045.22;4926982;28;20058;-78
2023/01/21 05:09:42;;;;;;;39.83;21.60;;;;;;;-1.85;100.00;103043.13;4945119;28;20057;-78
2023/01/21 05:12:09;;;;;;;42.00;22.23;;;;;;;-1.88;100.00;103048.03;4959096;28;20039;-78
2023/01/21 05:14:36;;;;;;;39.90;21.33;;;;;;;-1.92;100.00;103060.53;4885488;28;20066;-78
2023/01/21 05:17:04;;;;;;;39.88;20.92;;;;;;;-1.97;100.00;103066.22;4947094;28;20058;-78
2023/01/21 05:19:32;;;;;;;44.45;21.60;;;;;;;-2.00;100.00;103065.03;4920727;28;20050;-78
2023/01/21 05:22:00;;;;;;;38.88;20.52;;;;;;;-2.02;100.00;103064.00;4941236;28;20054;-78
2023/01/21 05:24:27;;;;;;;39.03;21.13;;;;;;;-2.06;100.00;103072.22;4969080;28;20050;-78
2023/01/21 05:26:56;;;;;;;41.03;21.35;;;;;;;-2.11;100.00;103069.22;4944760;28;20054;-78
2023/01/21 05:29:24;;;;;;;38.53;21.00;;;;;;;-2.15;100.00;103080.06;4924204;28;20066;-78
2023/01/21 05:31:51;;;;;;;38.55;20.80;;;;;;;-2.22;100.00;103073.41;4945044;29;20088;-78
2023/01/21 05:34:19;;;;;;;35.28;20.52;;;;;;;-2.28;100.00;103078.03;4948482;28;20058;-78
2023/01/21 05:36:46;;;;;;;40.10;20.35;;;;;;;-2.29;100.00;103090.78;4959670;28;20139;-78
2023/01/21 05:39:13;;;;;;;39.58;20.92;;;;;;;-2.31;100.00;103090.66;4941823;28;20412;-78
2023/01/21 05:41:41;;;;;;;40.03;20.27;;;;;;;-2.36;100.00;103098.00;4966423;28;20535;-78
2023/01/21 05:44:08;;;;;;;36.92;20.95;;;;;;;-2.39;100.00;103096.81;4959174;28;20046;-78
2023/01/21 05:46:36;;;;;;;40.03;20.63;;;;;;;-2.41;100.00;103109.56;4932417;28;20054;-78
2023/01/21 05:49:03;;;;;;;40.30;19.92;;;;;;;-2.46;100.00;103112.50;4935590;28;20057;-78
2023/01/21 05:51:30;;;;;;;38.20;20.73;;;;;;;-2.50;100.00;103106.13;4967429;28;20668;-78
2023/01/21 05:53:58;;;;;;;43.55;22.60;;;;;;;-2.50;100.00;103121.63;4942046;28;20523;-78
2023/01/21 05:56:26;;;;;;;40.10;20.55;;;;;;;-2.53;100.00;103123.94;4946785;29;20031;-77
2023/01/21 05:58:54;;;;;;;39.78;20.80;;;;;;;-2.56;100.00;103114.22;4938913;28;20051;-78
2023/01/21 06:01:21;;;;;;;38.80;20.23;;;;;;;-2.57;100.00;103127.91;4911598;28;20054;-78
2023/01/21 06:03:48;;;;;;;42.53;22.20;;;;;;;-2.55;100.00;103125.47;4940092;28;20460;-78
2023/01/21 06:06:16;;;;;;;39.00;21.40;;;;;;;-2.53;100.00;103118.78;4960928;28;20047;-78
2023/01/21 06:08:43;;;;;;;38.90;20.50;;;;;;;-2.50;100.00;103131.06;4933073;28;20165;-78
2023/01/21 06:11:10;;;;;;;41.50;20.50;;;;;;;-2.49;100.00;103136.38;4929695;29;20059;-78
2023/01/21 06:13:38;;;;;;;42.50;21.77;;;;;;;-2.47;100.00;103133.94;4934906;28;20051;-77
2023/01/21 06:16:05;;;;;;;46.25;21.48;;;;;;;-2.49;100.00;103145.78;4896628;28;20135;-77
2023/01/21 06:18:33;;;;;;;38.75;21.70;;;;;;;-2.51;100.00;103143.06;4938172;28;20047;-78
2023/01/21 06:21:02;;;;;;;41.08;21.65;;;;;;;-2.50;100.00;103131.94;4917815;28;20065;-78
2023/01/21 06:23:30;;;;;;;42.25;21.83;;;;;;;-2.49;100.00;103133.78;4949090;28;20051;-78
2023/01/21 06:25:59;;;;;;;43.83;22.40;;;;;;;-2.48;100.00;103143.31;4917840;28;20066;-78
2023/01/21 06:28:28;;;;;;;43.88;22.23;;;;;;;-2.51;100.00;103143.06;4940113;28;23274;-77
2023/01/21 06:30:55;;;;;;;42.53;21.90;;;;;;;-2.52;100.00;103145.50;4915926;28;20496;-77
2023/01/21 06:33:23;;;;;;;42.67;21.80;;;;;;;-2.54;100.00;103150.50;4943319;28;20047;-78
2023/01/21 06:35:51;;;;;;;38.35;20.88;;;;;;;-2.56;100.00;103150.34;4941667;28;20051;-77
2023/01/21 06:38:18;;;;;;;41.60;22.38;;;;;;;-2.59;100.00;103160.41;4950213;28;20047;-78
2023/01/21 06:40:45;;;;;;;46.05;23.38;;;;;;;-2.58;100.00;103167.38;4931822;28;20055;-77
2023/01/21 06:43:14;;;;;;;42.28;21.30;;;;;;;-2.59;100.00;103164.66;4920699;28;23412;-77
2023/01/21 06:45:42;;;;;;;46.75;22.05;;;;;;;-2.60;100.00;103171.50;4938284;29;20063;-77
2023/01/21 06:48:09;;;;;;;37.80;20.88;;;;;;;-2.61;100.00;103174.88;4886965;28;20059;-77
2023/01/21 06:50:36;;;;;;;40.58;22.75;;;;;;;-2.60;100.00;103186.09;4944599;28;20085;-77
2023/01/21 06:53:07;;;;;;;49.80;23.90;;;;;;;-2.57;100.00;103191.53;4958760;28;20062;-77
2023/01/21 06:55:34;;;;;;;45.25;22.00;;;;;;;-2.57;100.00;103184.69;4943523;28;20646;-76
2023/01/21 06:58:02;;;;;;;40.22;22.48;;;;;;;-2.55;100.00;103187.44;4938924;28;20501;-77
2023/01/21 07:00:30;;;;;;;43.13;22.27;;;;;;;-2.51;100.00;103196.34;4949316;28;20407;-77
2023/01/21 07:03:00;;;;;;;48.88;23.98;;;;;;;-2.51;100.00;103192.13;4901217;28;20055;-77
2023/01/21 07:05:27;;;;;;;51.45;24.45;;;;;;;-2.53;100.00;103201.41;4940758;28;20069;-77
2023/01/21 07:07:56;;;;;;;42.33;21.98;;;;;;;-2.52;100.00;103195.44;4929703;28;20418;-77
2023/01/21 07:10:24;;;;;;;46.97;23.77;;;;;;;-2.52;100.00;103197.13;4956198;28;20034;-77
2023/01/21 07:12:51;;;;;;;49.95;24.25;;;;;;;-2.55;100.00;103200.34;4907538;28;20081;-77
2023/01/21 07:15:19;;;;;;;53.42;23.40;;;;;;;-2.56;100.00;103198.50;4919139;28;20079;-77
2023/01/21 07:17:46;;;;;;;46.70;24.13;;;;;;;-2.57;100.00;103207.94;4911622;28;20051;-77
2023/01/21 07:20:14;;;;;;;48.15;24.58;;;;;;;-2.61;100.00;103222.97;4884699;28;20039;-77
2023/01/21 07:22:41;;;;;;;48.47;23.98;;;;;;;-2.61;100.00;103229.06;4964909;28;20043;-77
2023/01/21 07:25:09;;;;;;;52.40;27.00;;;;;;;-2.60;100.00;103240.28;4939920;28;20054;-77
2023/01/21 07:27:36;;;;;;;44.78;23.15;;;;;;;-2.58;100.00;103236.19;4947633;28;20444;-77
2023/01/21 07:30:05;;;;;;;48.65;24.20;;;;;;;-2.54;100.00;103240.88;4924267;28;20050;-77
2023/01/21 07:32:32;;;;;;;47.22;23.48;;;;;;;-2.52;100.00;103244.50;4932150;28;20054;-77
2023/01/21 07:35:00;;;;;;;44.60;23.20;;;;;;;-2.51;100.00;103248.91;4915573;28;20520;-76
2023/01/21 07:37:27;;;;;;;46.30;23.00;;;;;;;-2.54;100.00;103256.34;4940914;28;20055;-77
2023/01/21 07:39:55;;;;;;;39.60;22.83;;;;;;;-2.55;100.00;103260.63;4915075;29;20066;-76
2023/01/21 07:42:22;;;;;;;42.88;21.48;;;;;;;-2.57;100.00;103271.53;4939574;28;20050;-76
2023/01/21 07:44:50;;;;;;;37.53;21.77;;;;;;;-2.57;100.00;103271.53;4934344;28;20393;-76
2023/01/21 07:47:17;;;;;;;37.85;20.80;;;;;;;-2.59;100.00;103280.81;4942957;28;20040;-76
2023/01/21 07:49:48;;;;;;;39.67;22.33;;;;;;;-2.58;100.00;103277.50;4909112;28;20051;-76
2023/01/21 07:52:15;;;;;;;45.42;22.40;;;;;;;-2.56;100.00;103276.88;4925878;29;20559;-76
2023/01/21 07:54:43;;;;;;;41.28;21.95;;;;;;;-2.54;100.00;103284.75;4963236;28;20530;-76
2023/01/21 07:57:10;;;;;;;39.92;21.27;;;;;;;-2.54;100.00;103292.50;4962594;28;20539;-76
2023/01/21 07:59:37;;;;;;;51.47;25.35;;;;;;;-2.52;100.00;103290.97;4918768;28;20389;-76
2023/01/21 08:02:05;;;;;;;44.28;22.92;;;;;;;-2.53;100.00;103290.81;4912015;29;20054;-77
2023/01/21 08:04:32;;;;;;;40.67;21.42;;;;;;;-2.52;100.00;103296.13;4928006;28;20047;-77
2023/01/21 08:07:05;;;;;;;46.08;22.80;;;;;;;-2.49;100.00;103293.88;4949076;28;20043;-76
2023/01/21 08:09:32;;;;;;;42.92;22.92;;;;;;;-2.47;100.00;103294.00;4950711;28;20047;-76
2023/01/21 08:12:00;;;;;;;43.95;22.98;;;;;;;-2.42;100.00;103305.66;4966874;28;20051;-76
2023/01/21 08:14:27;;;;;;;42.22;23.17;;;;;;;-2.39;100.00;103300.81;4914303;28;20127;-78
2023/01/21 08:16:55;;;;;;;41.45;22.05;;;;;;;-2.37;100.00;103305.34;4910818;28;20074;-77
2023/01/21 08:19:22;;;;;;;44.25;23.08;;;;;;;-2.36;100.00;103291.69;4954826;28;20046;-77
2023/01/21 08:21:50;;;;;;;40.03;22.77;;;;;;;-2.33;100.00;103287.56;4901135;28;20038;-77
2023/01/21 08:24:18;;;;;;;41.58;22.05;;;;;;;-2.30;100.00;103290.44;4958589;28;20047;-77
2023/01/21 08:26:45;;;;;;;38.20;22.00;;;;;;;-2.30;100.00;103281.03;4945387;28;20066;-77
2023/01/21 08:29:12;;;;;;;46.92;24.17;;;;;;;-2.27;100.00;103293.31;4940007;29;20062;-77
2023/01/21 08:31:39;;;;;;;48.40;24.30;;;;;;;-2.25;100.00;103292.69;4936487;28;20039;-77
2023/01/21 08:34:07;;;;;;;44.33;22.60;;;;;;;-2.23;100.00;103298.00;4933187;29;20986;-77
2023/01/21 08:36:37;;;;;;;43.60;23.75;;;;;;;-2.22;100.00;103297.25;4862586;29;20578;-77
2023/01/21 08:39:05;;;;;;;40.75;22.92;;;;;;;-2.21;100.00;103294.81;4948308;29;20051;-77
2023/01/21 08:41:33;;;;;;;40.10;21.77;;;;;;;-2.20;100.00;103316.38;4937659;29;20048;-77
2023/01/21 08:44:00;;;;;;;42.40;23.30;;;;;;;-2.18;100.00;103314.84;4921556;29;20051;-77
2023/01/21 08:46:27;;;;;;;41.08;23.25;;;;;;;-2.13;100.00;103312.72;4917883;29;20059;-77
2023/01/21 08:48:55;;;;;;;39.53;22.20;;;;;;;-2.06;100.00;103318.59;4919141;29;20409;-77
2023/01/21 08:51:22;;;;;;;42.97;23.83;;;;;;;-2.01;100.00;103325.06;4878346;29;20050;-77
2023/01/21 08:53:50;;;;;;;45.42;24.95;;;;;;;-1.93;100.00;103330.06;4918498;29;20058;-77
2023/01/21 08:56:20;;;;;;;30.05;18.17;;;;;;;-1.87;100.00;103335.78;4908904;29;20048;-77
2023/01/21 08:58:47;;;;;;;48.65;24.55;;;;;;;-1.82;100.00;103332.88;4922891;29;20056;-77
2023/01/21 09:01:14;;;;;;;45.85;23.77;;;;;;;-1.75;100.00;103339.53;4896427;29;20059;-77
2023/01/21 09:03:42;;;;;;;46.28;24.58;;;;;;;-1.67;100.00;103335.06;4919427;29;20055;-77
2023/01/21 09:06:10;;;;;;;47.35;25.05;;;;;;;-1.61;100.00;103349.50;4907731;29;20062;-77
2023/01/21 09:08:38;;;;;;;51.47;24.92;;;;;;;-1.50;100.00;103339.22;4911113;29;20074;-77
2023/01/21 09:11:05;;;;;;;45.92;24.85;;;;;;;-1.41;100.00;103342.66;4942219;29;20040;-77
2023/01/21 09:13:36;;;;;;;50.35;25.73;;;;;;;-1.31;100.00;103345.31;4916472;29;20051;-77
2023/01/21 09:16:08;;;;;;;51.63;26.95;;;;;;;-1.19;100.00;103349.03;4919810;28;20139;-77
2023/01/21 09:18:36;;;;;;;50.75;25.70;;;;;;;-1.04;100.00;103351.16;4940154;29;20046;-77
2023/01/21 09:21:05;;;;;;;46.40;25.02;;;;;;;-0.90;100.00;103342.06;4946013;29;20050;-77
2023/01/21 09:23:34;;;;;;;47.88;26.92;;;;;;;-0.80;100.00;103349.88;4864460;29;20052;-77
2023/01/21 09:26:06;;;;;;;47.72;24.83;;;;;;;-0.73;100.00;103351.34;4897478;29;20464;-77
2023/01/21 09:28:36;;;;;;;54.00;26.92;;;;;;;-0.69;100.00;103341.38;4940095;28;20055;-77
2023/01/21 09:31:07;;;;;;;40.33;23.52;;;;;;;-0.67;100.00;103349.31;4875057;28;20047;-77
2023/01/21 09:33:38;;;;;;;46.60;24.48;;;;;;;-0.65;100.00;103364.19;4937311;29;20560;-77
2023/01/21 09:36:11;;;;;;;41.92;24.13;;;;;;;-0.66;100.00;103361.47;4919159;29;20062;-76
2023/01/21 09:38:43;;;;;;;47.60;25.92;;;;;;;-0.67;100.00;103364.84;4932622;29;20055;-77
2023/01/21 09:41:43;;;;;;;44.78;25.52;;;;;;;-0.67;100.00;103359.66;4888386;28;21609;-77
2023/01/21 09:44:19;;;;;;;50.75;27.23;;;;;;;-0.66;100.00;103367.56;4943594;29;20801;-77
2023/01/21 09:46:54;;;;;;;49.95;25.88;;;;;;;-0.62;100.00;103368.75;4908029;28;20062;-77
2023/01/21 09:49:31;;;;;;;51.80;25.98;;;;;;;-0.56;100.00;103376.16;4935873;29;20055;-77
2023/01/21 09:52:21;;;;;;;49.38;27.10;;;;;;;-0.51;100.00;103370.63;4935721;29;20028;-77
2023/01/21 09:54:49;;;;;;;61.63;33.25;;;;;;;-0.43;100.00;103371.28;4921949;29;20051;-77
2023/01/21 09:57:19;;;;;;;52.60;30.10;;;;;;;-0.33;100.00;103373.91;4934005;28;20047;-77
2023/01/21 09:59:56;;;;;;;52.20;29.38;;;;;;;-0.22;100.00;103372.28;4925515;28;20059;-76
2023/01/21 10:02:26;;;;;;;47.33;28.65;;;;;;;-0.13;100.00;103385.09;4926621;29;20036;-77
2023/01/21 10:05:23;;;;;;;50.05;27.63;;;;;;;-0.03;100.00;103372.19;4944527;29;20047;-77
2023/01/21 10:07:53;;;;;;;40.67;24.42;;;;;;;0.08;100.00;103370.53;4902567;29;20059;-77
2023/01/21 10:10:53;;;;;;;45.03;24.40;;;;;;;0.17;100.00;103380.00;4914709;29;20417;-77
2023/01/21 10:13:36;;;;;;;33.10;20.88;;;;;;;0.31;100.00;103380.28;4863217;29;20087;-77
2023/01/21 10:16:23;;;;;;;28.83;17.60;;;;;;;0.42;100.00;103381.16;4921900;28;20062;-77
2023/01/21 10:18:52;;;;;;;24.10;14.18;;;;;;;0.56;100.00;103383.25;4928697;29;20059;-77
2023/01/21 10:21:35;;;;;;;16.23;12.07;;;;;;;0.66;100.00;103385.88;4942918;29;20050;-77
2023/01/21 10:24:15;;;;;;;18.45;12.63;;;;;;;0.75;100.00;103385.72;4941626;28;20058;-78
2023/01/21 10:26:46;;;;;;;16.70;12.40;;;;;;;0.85;100.00;103395.19;4896087;29;20062;-78
2023/01/21 10:29:21;;;;;;;16.92;11.95;;;;;;;0.92;100.00;103393.22;4930317;28;20054;-78
2023/01/21 10:31:58;;;;;;;18.27;11.63;;;;;;;1.04;100.00;103392.41;4904544;29;20048;-78
2023/01/21 10:34:38;;;;;;;14.85;11.50;;;;;;;1.13;100.00;103394.09;4915487;29;20051;-78
2023/01/21 10:37:14;;;;;;;15.23;11.10;;;;;;;1.19;100.00;103396.28;4944896;28;20417;-77
2023/01/21 10:40:12;;;;;;;17.20;10.88;;;;;;;1.28;100.00;103388.34;4949464;28;20047;-77
2023/01/21 10:43:02;;;;;;;16.98;11.77;;;;;;;1.36;100.00;103387.25;4908954;28;20045;-77
2023/01/21 10:45:44;;;;;;;15.75;11.20;;;;;;;1.43;100.00;103389.59;4958164;28;20069;-77
2023/01/21 10:48:31;;;;;;;15.00;10.32;;;;;;;1.51;100.00;103398.00;4908826;28;20054;-77
2023/01/21 10:51:17;;;;;;;13.65;10.15;;;;;;;1.55;100.00;103390.59;4940542;28;20043;-77
2023/01/21 10:54:06;;;;;;;15.32;10.43;;;;;;;1.61;100.00;103395.38;4931254;29;20055;-78
2023/01/21 10:56:47;;;;;;;13.48;10.38;;;;;;;1.68;100.00;103397.69;4909647;28;20073;-78
2023/01/21 10:59:21;;;;;;;14.80;9.90;;;;;;;1.74;100.00;103392.06;4951611;28;20043;-78
2023/01/21 11:02:02;;;;;;;12.93;10.25;;;;;;;1.82;100.00;103390.97;4928776;29;20050;-77
2023/01/21 11:04:29;;;;;;;;;;;;;;;1.90;100.00;103394.19;4924457;28;20440;-76
2023/01/21 11:07:06;;;;;;;13.73;9.68;;;;;;;1.96;100.00;103386.88;4938833;28;19937;-77
2023/01/21 11:09:37;;;;;;;12.45;9.65;;;;;;;2.05;100.00;103389.28;4946759;28;20044;-77
2023/01/21 11:12:09;;;;;;;14.82;8.95;;;;;;;2.10;100.00;103396.69;4915406;28;20047;-77
2023/01/21 11:14:36;;;;;;;10.43;8.70;;;;;;;2.13;100.00;103393.41;4936183;28;20070;-77
2023/01/21 11:17:04;;;;;;;11.55;8.82;;;;;;;2.13;100.00;103398.59;4953370;28;20058;-78
2023/01/21 11:19:32;;;;;;;12.05;9.10;;;;;;;2.14;100.00;103397.81;4940147;28;20047;-77
2023/01/21 11:22:05;;;;;;;11.90;8.75;;;;;;;2.16;100.00;103398.84;4933826;28;20046;-77
2023/01/21 11:24:48;;;;;;;11.60;8.45;;;;;;;2.21;100.00;103399.19;4948468;28;20050;-77
2023/01/21 11:27:18;;;;;;;12.07;8.57;;;;;;;2.26;100.00;103396.16;4932132;28;20047;-77
2023/01/21 11:29:48;;;;;;;11.00;8.02;;;;;;;2.33;100.00;103403.66;4923691;29;20070;-77